Terminal Aerodrome Forecast
Issued by NWS

Home | Current Version | Previous Version | Text Only | Print | Product List | Glossary On
Versions: 1 2 3 4 5 6 7 8 9 10 11 12 13
000
FTUS46 KHNX 182336
TAFMCE
TAF
KMCE 182336Z 1900/1924 17005KT P6SM SCT150
     FM190600 VRB03KT 4SM BR BKN150
     FM190900 12005KT 2SM BR BKN120
     FM191200 10004KT 1SM BR BKN100
     FM191800 13008KT 3SM BR OVC060
      TEMPO 1918/1921 2SM -RA OVC040=

USA.gov is the U.S. government's official web portal to all federal, state and local government web resources and services.